createdAt,value
2023-04-17T00:01:05.963Z,8.93
2023-04-17T00:03:33.697Z,8.80
2023-04-17T00:06:01.092Z,8.77
2023-04-17T00:08:28.438Z,8.98
2023-04-17T00:11:06.455Z,8.77
2023-04-17T00:13:34.976Z,8.35
2023-04-17T00:16:02.483Z,9.32
2023-04-17T00:18:30.125Z,8.65
2023-04-17T00:20:57.660Z,9.15
2023-04-17T00:23:26.299Z,8.65
2023-04-17T00:25:53.566Z,8.07
2023-04-17T00:28:20.951Z,8.20
2023-04-17T00:30:48.236Z,7.45
2023-04-17T00:33:15.775Z,7.93
2023-04-17T00:35:43.090Z,7.43
2023-04-17T00:38:10.787Z,8.13
2023-04-17T00:40:38.052Z,7.03
2023-04-17T00:43:07.074Z,8.38
2023-04-17T00:45:35.363Z,7.95
2023-04-17T00:48:05.833Z,8.10
2023-04-17T00:50:33.743Z,7.95
2023-04-17T00:53:01.632Z,6.45
2023-04-17T00:55:31.524Z,7.20
2023-04-17T00:58:00.496Z,7.07
2023-04-17T01:00:27.928Z,7.22
2023-04-17T01:03:00.392Z,6.05
2023-04-17T01:05:27.999Z,5.70
2023-04-17T01:07:58.114Z,5.82
2023-04-17T01:10:25.519Z,6.03
2023-04-17T01:13:03.400Z,5.10
2023-04-17T01:15:31.846Z,4.75
2023-04-17T01:17:59.495Z,4.50
2023-04-17T01:20:30.164Z,4.80
2023-04-17T01:22:58.594Z,4.10
2023-04-17T01:25:27.478Z,3.85
2023-04-17T01:27:55.344Z,3.78
2023-04-17T01:30:22.840Z,3.40
2023-04-17T01:32:56.320Z,4.00
2023-04-17T01:35:23.664Z,3.30
2023-04-17T01:37:51.173Z,2.55
2023-04-17T01:40:18.853Z,4.68
2023-04-17T01:42:46.244Z,3.00
2023-04-17T01:45:13.700Z,3.35
2023-04-17T01:47:41.157Z,3.85
2023-04-17T01:50:09.307Z,3.90
2023-04-17T01:52:37.360Z,4.50
2023-04-17T01:55:05.098Z,4.68
2023-04-17T01:57:33.297Z,5.53
2023-04-17T02:00:00.768Z,6.60
2023-04-17T02:02:28.137Z,6.88
2023-04-17T02:04:55.626Z,5.75
2023-04-17T02:07:22.933Z,6.15
2023-04-17T02:09:50.222Z,6.13
2023-04-17T02:12:17.527Z,5.80
2023-04-17T02:14:44.881Z,5.88
2023-04-17T02:17:12.218Z,6.57
2023-04-17T02:19:39.556Z,5.10
2023-04-17T02:22:06.827Z,5.20
2023-04-17T02:24:34.140Z,5.57
2023-04-17T02:27:01.994Z,5.72
2023-04-17T02:29:29.369Z,5.25
2023-04-17T02:31:57.087Z,4.70
2023-04-17T02:34:24.477Z,4.70
2023-04-17T02:36:53.341Z,5.28
2023-04-17T02:39:23.725Z,5.65
2023-04-17T02:41:51.054Z,5.13
2023-04-17T02:44:18.459Z,4.60
2023-04-17T02:46:45.902Z,4.38
2023-04-17T02:49:14.578Z,4.20
2023-04-17T02:51:42.070Z,4.10
2023-04-17T02:54:09.413Z,3.85
2023-04-17T02:56:36.787Z,4.72
2023-04-17T02:59:04.197Z,4.60
2023-04-17T03:01:31.648Z,4.72
2023-04-17T03:03:59.347Z,4.82
2023-04-17T03:06:26.791Z,5.47
2023-04-17T03:08:54.206Z,4.90
2023-04-17T03:11:21.735Z,4.80
2023-04-17T03:13:49.416Z,5.43
2023-04-17T03:16:16.737Z,4.78
2023-04-17T03:18:46.367Z,4.40
2023-04-17T03:21:13.696Z,4.90
2023-04-17T03:23:41.483Z,4.18
2023-04-17T03:26:09.646Z,4.63
2023-04-17T03:28:37.807Z,3.55
2023-04-17T03:31:06.602Z,3.88
2023-04-17T03:33:37.837Z,3.65
2023-04-17T03:36:09.049Z,3.20
2023-04-17T03:38:38.299Z,3.00
2023-04-17T03:41:08.072Z,3.50
2023-04-17T03:43:35.504Z,3.05
2023-04-17T03:46:02.866Z,3.42
2023-04-17T03:48:31.278Z,4.18
2023-04-17T03:50:58.913Z,4.05
2023-04-17T03:53:26.647Z,3.78
2023-04-17T03:55:54.798Z,4.38
2023-04-17T03:58:30.031Z,4.97
2023-04-17T04:00:58.987Z,4.18
2023-04-17T04:03:31.186Z,3.92
2023-04-17T04:05:59.822Z,3.63
2023-04-17T04:08:27.227Z,3.17
2023-04-17T04:10:55.312Z,3.15
2023-04-17T04:13:32.572Z,3.03
2023-04-17T04:16:02.028Z,3.58
2023-04-17T04:18:31.618Z,21.38
2023-04-17T04:20:59.401Z,13.10
2023-04-17T04:23:31.339Z,4.13
2023-04-17T04:26:01.784Z,3.22
2023-04-17T04:28:39.236Z,3.40
2023-04-17T04:31:10.670Z,3.70
2023-04-17T04:33:40.889Z,2.42
2023-04-17T04:36:08.392Z,2.05
2023-04-17T04:38:36.520Z,2.83
2023-04-17T04:41:11.456Z,2.10
2023-04-17T04:43:41.990Z,1.15
2023-04-17T04:46:13.085Z,1.10
2023-04-17T04:48:45.391Z,1.20
2023-04-17T04:51:13.253Z,1.73
2023-04-17T04:53:41.302Z,1.08
2023-04-17T04:56:08.936Z,0.88
2023-04-17T04:58:38.605Z,0.80
2023-04-17T05:01:06.872Z,0.90
2023-04-17T05:03:40.650Z,1.85
2023-04-17T05:06:11.231Z,1.88
2023-04-17T05:08:43.346Z,1.70
2023-04-17T05:11:12.758Z,1.30
2023-04-17T05:13:40.480Z,1.30
2023-04-17T05:16:13.987Z,1.55
2023-04-17T05:18:41.506Z,0.93
2023-04-17T05:21:11.769Z,1.60
2023-04-17T05:23:42.017Z,1.40
2023-04-17T05:26:09.367Z,2.08
2023-04-17T05:28:36.638Z,1.58
2023-04-17T05:31:04.388Z,1.17
2023-04-17T05:33:37.013Z,4.57
2023-04-17T05:36:06.809Z,2.72
2023-04-17T05:38:37.643Z,2.55
2023-04-17T05:41:08.478Z,2.25
2023-04-17T05:43:38.546Z,2.53
2023-04-17T05:46:07.118Z,1.95
2023-04-17T05:48:34.531Z,1.95
2023-04-17T05:51:04.158Z,2.63
2023-04-17T05:53:33.165Z,2.63
2023-04-17T05:56:01.815Z,3.72
2023-04-17T05:58:31.741Z,2.92
2023-04-17T06:00:59.627Z,3.10
2023-04-17T06:03:28.778Z,3.08
2023-04-17T06:06:03.804Z,3.03
2023-04-17T06:08:32.199Z,4.68
2023-04-17T06:10:59.555Z,4.35
2023-04-17T06:13:27.603Z,3.38
2023-04-17T06:15:57.609Z,5.55
2023-04-17T06:18:24.970Z,4.45
2023-04-17T06:20:52.557Z,4.72
2023-04-17T06:23:21.711Z,3.95
2023-04-17T06:25:50.136Z,4.07
2023-04-17T06:28:18.943Z,3.85
2023-04-17T06:30:49.145Z,3.80
2023-04-17T06:33:16.551Z,2.17
2023-04-17T06:35:44.682Z,3.63
2023-04-17T06:38:19.838Z,3.65
2023-04-17T06:40:47.773Z,3.10
2023-04-17T06:43:18.111Z,5.35
2023-04-17T06:45:46.895Z,2.40
2023-04-17T06:48:14.421Z,2.90
2023-04-17T06:50:41.794Z,3.83
2023-04-17T06:53:09.742Z,3.80
2023-04-17T06:55:37.159Z,2.67
2023-04-17T06:58:05.029Z,3.10
2023-04-17T07:00:32.489Z,5.18
2023-04-17T07:03:00.627Z,4.68
2023-04-17T07:05:30.237Z,5.00
2023-04-17T07:07:57.600Z,4.50
2023-04-17T07:10:24.892Z,3.30
2023-04-17T07:12:52.438Z,3.83
2023-04-17T07:15:20.046Z,4.25
2023-04-17T07:17:47.633Z,3.80
2023-04-17T07:20:15.105Z,3.38
2023-04-17T07:22:43.245Z,2.97
2023-04-17T07:25:10.650Z,2.80
2023-04-17T07:27:39.407Z,2.10
2023-04-17T07:30:08.650Z,3.10
2023-04-17T07:32:36.507Z,2.83
2023-04-17T07:35:04.588Z,2.70
2023-04-17T07:37:33.085Z,1.88
2023-04-17T07:40:00.655Z,2.15
2023-04-17T07:42:29.404Z,2.10
2023-04-17T07:44:58.665Z,1.60
2023-04-17T07:47:26.157Z,14.20
2023-04-17T07:49:56.235Z,1.92
2023-04-17T07:52:23.880Z,2.08
2023-04-17T07:54:51.381Z,2.17
2023-04-17T07:57:19.045Z,2.10
2023-04-17T07:59:47.226Z,2.53
2023-04-17T08:02:16.447Z,3.60
2023-04-17T08:04:45.069Z,2.65
2023-04-17T08:07:13.264Z,1.83
2023-04-17T08:09:43.265Z,1.60
2023-04-17T08:12:14.004Z,2.20
2023-04-17T08:14:42.078Z,1.80
2023-04-17T08:17:09.637Z,1.20
2023-04-17T08:19:37.108Z,2.05
2023-04-17T08:22:06.310Z,1.60
2023-04-17T08:24:36.023Z,2.60
2023-04-17T08:27:03.766Z,3.47
2023-04-17T08:29:31.109Z,3.70
2023-04-17T08:32:13.188Z,3.40
2023-04-17T08:34:42.575Z,2.85
2023-04-17T08:37:09.986Z,3.53
2023-04-17T08:39:37.385Z,4.22
2023-04-17T08:42:17.723Z,4.28
2023-04-17T08:44:48.584Z,4.55
2023-04-17T08:47:18.433Z,3.70
2023-04-17T08:49:47.296Z,4.63
2023-04-17T08:52:14.850Z,4.55
2023-04-17T08:54:42.207Z,3.92
2023-04-17T08:57:09.613Z,7.13
2023-04-17T08:59:36.988Z,5.95
2023-04-17T09:02:07.397Z,4.40
2023-04-17T09:04:43.823Z,3.63
2023-04-17T09:07:15.738Z,5.80
2023-04-17T09:09:56.967Z,3.88
2023-04-17T09:12:25.921Z,4.15
2023-04-17T09:14:53.408Z,5.25
2023-04-17T09:17:21.667Z,3.17
2023-04-17T09:20:19.991Z,3.42
2023-04-17T09:22:47.829Z,3.75
2023-04-17T09:25:17.352Z,4.03
2023-04-17T09:27:45.106Z,4.32
2023-04-17T09:30:13.611Z,6.38
2023-04-17T09:32:41.310Z,4.90
2023-04-17T09:35:09.046Z,3.33
2023-04-17T09:37:56.260Z,4.15
2023-04-17T09:40:25.349Z,5.38
2023-04-17T09:43:04.051Z,4.50
2023-04-17T09:45:36.001Z,4.50
2023-04-17T09:48:11.717Z,3.85
2023-04-17T09:50:40.004Z,4.03
2023-04-17T09:53:08.690Z,4.03
2023-04-17T09:55:38.058Z,4.47
2023-04-17T09:58:08.048Z,5.05
2023-04-17T10:00:37.013Z,6.25
2023-04-17T10:03:05.269Z,4.00
2023-04-17T10:05:33.171Z,5.00
2023-04-17T10:08:01.186Z,4.28
2023-04-17T10:10:32.475Z,3.75
2023-04-17T10:13:02.028Z,4.50
2023-04-17T10:15:31.078Z,3.92
2023-04-17T10:18:19.862Z,4.20
2023-04-17T10:20:48.666Z,4.63
2023-04-17T10:23:34.233Z,4.88
2023-04-17T10:26:46.927Z,7.35
2023-04-17T10:29:14.464Z,5.45
2023-04-17T10:32:16.025Z,5.35
2023-04-17T10:34:44.263Z,6.53
2023-04-17T10:37:16.082Z,7.63
2023-04-17T10:40:00.224Z,5.68
2023-04-17T10:42:29.852Z,6.63
2023-04-17T10:45:01.609Z,6.22
2023-04-17T10:47:33.787Z,6.43
2023-04-17T10:52:40.278Z,7.22
2023-04-17T10:55:22.237Z,6.50
2023-04-17T10:57:58.832Z,7.43
2023-04-17T11:00:35.996Z,5.43
2023-04-17T11:03:05.700Z,6.00
2023-04-17T11:05:34.077Z,5.80
2023-04-17T11:08:01.844Z,6.28
2023-04-17T11:10:29.370Z,6.13
2023-04-17T11:12:57.028Z,5.15
2023-04-17T11:15:34.060Z,6.28
2023-04-17T11:18:03.056Z,6.05
2023-04-17T11:20:32.462Z,5.35
2023-04-17T11:23:04.564Z,4.93
2023-04-17T11:28:03.542Z,5.47
2023-04-17T11:30:40.822Z,4.97
2023-04-17T11:33:09.015Z,6.97
2023-04-17T11:35:38.638Z,6.45
2023-04-17T11:38:13.997Z,6.47
2023-04-17T11:40:55.173Z,7.28
2023-04-17T11:43:24.035Z,7.22
2023-04-17T11:45:56.638Z,6.38
2023-04-17T11:48:26.435Z,5.55
2023-04-17T11:51:04.002Z,5.78
2023-04-17T11:53:34.517Z,6.55
2023-04-17T11:56:16.255Z,7.60
2023-04-17T11:58:54.820Z,8.27
2023-04-17T12:01:27.043Z,7.90
2023-04-17T12:03:59.360Z,6.68
2023-04-17T12:06:37.834Z,9.65
2023-04-17T12:09:07.324Z,6.85
2023-04-17T12:11:36.149Z,5.68
2023-04-17T12:14:05.800Z,5.55
2023-04-17T12:16:33.351Z,6.93
2023-04-17T12:19:01.026Z,10.15
2023-04-17T12:21:31.658Z,7.03
2023-04-17T12:23:59.227Z,6.00
2023-04-17T12:26:26.906Z,7.10
2023-04-17T12:28:56.347Z,7.63
2023-04-17T12:31:23.682Z,4.75
2023-04-17T12:33:52.514Z,4.93
2023-04-17T12:36:19.879Z,5.82
2023-04-17T12:38:47.381Z,5.32
2023-04-17T12:41:14.753Z,7.15
2023-04-17T12:43:42.420Z,5.45
2023-04-17T12:46:10.585Z,10.60
2023-04-17T12:48:38.033Z,5.60
2023-04-17T12:51:05.971Z,5.13
2023-04-17T12:53:33.364Z,5.97
2023-04-17T12:56:00.852Z,4.30
2023-04-17T12:58:28.648Z,10.00
2023-04-17T13:00:56.132Z,6.75
2023-04-17T13:03:23.516Z,8.07
2023-04-17T13:05:53.166Z,7.78
2023-04-17T13:08:21.130Z,8.10
2023-04-17T13:10:48.611Z,7.57
2023-04-17T13:13:15.932Z,13.65
2023-04-17T13:15:45.937Z,7.40
2023-04-17T13:18:13.481Z,8.93
2023-04-17T13:20:40.976Z,7.82
2023-04-17T13:23:08.432Z,12.32
2023-04-17T13:25:35.820Z,7.70
2023-04-17T13:28:03.831Z,8.68
2023-04-17T13:30:32.358Z,7.05
2023-04-17T13:32:59.787Z,8.23
2023-04-17T13:35:27.301Z,8.38
2023-04-17T13:37:55.798Z,10.30
2023-04-17T13:40:23.231Z,8.88
2023-04-17T13:42:50.906Z,7.95
2023-04-17T13:45:18.436Z,9.52
2023-04-17T13:47:46.051Z,10.93
2023-04-17T13:50:13.737Z,10.23
2023-04-17T13:52:41.097Z,11.30
2023-04-17T13:55:11.913Z,6.10
2023-04-17T13:57:39.352Z,9.23
2023-04-17T14:00:07.771Z,8.77
2023-04-17T14:02:35.372Z,8.20
2023-04-17T14:05:03.100Z,8.25
2023-04-17T14:07:30.606Z,8.18
2023-04-17T14:09:58.074Z,7.78
2023-04-17T14:12:25.452Z,8.45
2023-04-17T14:14:52.731Z,8.35
2023-04-17T14:17:20.090Z,8.18
2023-04-17T14:19:47.424Z,8.35
2023-04-17T14:22:14.787Z,7.32
2023-04-17T14:24:42.072Z,8.10
2023-04-17T14:27:09.460Z,8.40
2023-04-17T14:29:36.916Z,8.73
2023-04-17T14:32:04.554Z,8.13
2023-04-17T14:34:31.814Z,10.40
2023-04-17T14:36:59.175Z,14.68
2023-04-17T14:39:26.446Z,8.25
2023-04-17T14:41:53.810Z,9.02
2023-04-17T14:44:21.144Z,7.82
2023-04-17T14:46:48.915Z,10.15
2023-04-17T14:49:16.725Z,8.25
2023-04-17T14:51:44.064Z,10.00
2023-04-17T14:54:11.615Z,10.70
2023-04-17T14:56:39.864Z,8.30
2023-04-17T14:59:07.256Z,9.63
2023-04-17T15:01:34.660Z,7.57
2023-04-17T15:04:03.543Z,8.85
2023-04-17T15:06:31.057Z,8.20
2023-04-17T15:08:58.317Z,9.10
2023-04-17T15:11:25.819Z,10.05
2023-04-17T15:13:53.171Z,7.85
2023-04-17T15:16:20.529Z,9.63
2023-04-17T15:18:48.077Z,8.05
2023-04-17T15:21:18.864Z,9.20
2023-04-17T15:23:46.265Z,12.65
2023-04-17T15:26:13.839Z,8.70
2023-04-17T15:28:41.167Z,8.70
2023-04-17T15:31:08.571Z,10.90
2023-04-17T15:33:37.458Z,7.57
2023-04-17T15:36:04.922Z,6.95
2023-04-17T15:38:32.322Z,7.25
2023-04-17T15:40:59.616Z,7.10
2023-04-17T15:43:27.170Z,7.97
2023-04-17T15:45:54.814Z,8.05
2023-04-17T15:48:22.192Z,6.32
2023-04-17T15:50:49.474Z,5.85
2023-04-17T15:53:16.812Z,4.88
2023-04-17T15:55:44.162Z,4.93
2023-04-17T15:58:11.580Z,6.47
2023-04-17T16:00:39.071Z,5.47
2023-04-17T16:03:09.289Z,4.65
2023-04-17T16:05:36.817Z,5.32
2023-04-17T16:08:04.208Z,5.82
2023-04-17T16:10:31.499Z,4.95
2023-04-17T16:12:58.862Z,4.72
2023-04-17T16:15:26.152Z,5.15
2023-04-17T16:17:53.583Z,5.55
2023-04-17T16:20:20.900Z,5.38
2023-04-17T16:22:48.247Z,5.07
2023-04-17T16:25:15.632Z,5.07
2023-04-17T16:27:43.091Z,5.43
2023-04-17T16:30:11.049Z,4.32
2023-04-17T16:32:38.470Z,5.10
2023-04-17T16:35:07.174Z,4.28
2023-04-17T16:37:34.538Z,4.13
2023-04-17T16:40:04.882Z,3.60
2023-04-17T16:42:33.109Z,3.63
2023-04-17T16:45:00.623Z,2.65
2023-04-17T16:47:31.366Z,2.85
2023-04-17T16:49:58.835Z,3.10
2023-04-17T16:52:26.158Z,3.67
2023-04-17T16:54:53.461Z,2.85
2023-04-17T16:57:21.054Z,3.88
2023-04-17T16:59:48.350Z,4.30
2023-04-17T17:02:15.742Z,4.00
2023-04-17T17:04:44.882Z,4.68
2023-04-17T17:07:12.339Z,3.67
2023-04-17T17:09:39.602Z,4.03
2023-04-17T17:12:07.041Z,3.58
2023-04-17T17:14:34.375Z,3.95
2023-04-17T17:17:01.808Z,5.22
2023-04-17T17:19:29.456Z,5.15
2023-04-17T17:21:57.083Z,4.03
2023-04-17T17:24:24.376Z,3.97
2023-04-17T17:26:51.779Z,3.80
2023-04-17T17:29:19.104Z,7.05
2023-04-17T17:31:46.462Z,3.95
2023-04-17T17:36:44.188Z,4.88
2023-04-17T17:39:11.874Z,4.95
2023-04-17T17:41:39.340Z,5.13
2023-04-17T17:44:06.736Z,4.75
2023-04-17T17:46:35.791Z,4.63
2023-04-17T17:49:03.291Z,7.03
2023-04-17T17:51:31.294Z,3.67
2023-04-17T17:53:58.632Z,4.00
2023-04-17T17:56:26.021Z,3.90
2023-04-17T17:58:53.495Z,3.03
2023-04-17T18:01:22.743Z,4.38
2023-04-17T18:03:50.423Z,3.85
2023-04-17T18:06:17.881Z,4.43
2023-04-17T18:08:45.242Z,4.93
2023-04-17T18:11:13.792Z,5.15
2023-04-17T18:13:41.213Z,4.20
2023-04-17T18:16:08.758Z,4.32
2023-04-17T18:18:36.184Z,5.18
2023-04-17T18:21:07.192Z,5.40
2023-04-17T18:23:34.965Z,6.88
2023-04-17T18:26:03.338Z,4.43
2023-04-17T18:28:30.794Z,5.72
2023-04-17T18:30:58.160Z,4.28
2023-04-17T18:33:25.537Z,4.60
2023-04-17T18:35:52.851Z,5.18
2023-04-17T18:38:20.227Z,4.45
2023-04-17T18:40:47.479Z,5.95
2023-04-17T18:43:14.796Z,5.55
2023-04-17T18:45:42.089Z,5.07
2023-04-17T18:48:09.431Z,7.15
2023-04-17T18:50:38.405Z,7.55
2023-04-17T18:53:05.785Z,5.43
2023-04-17T18:55:33.244Z,6.20
2023-04-17T18:58:00.968Z,6.30
2023-04-17T19:00:28.356Z,6.88
2023-04-17T19:02:55.795Z,4.22
2023-04-17T19:05:23.558Z,5.82
2023-04-17T19:07:51.883Z,4.68
2023-04-17T19:10:19.298Z,4.07
2023-04-17T19:12:46.918Z,6.75
2023-04-17T19:15:14.251Z,4.93
2023-04-17T19:17:41.587Z,6.15
2023-04-17T19:20:09.927Z,5.75
2023-04-17T19:22:37.222Z,6.13
2023-04-17T19:25:04.929Z,6.25
2023-04-17T19:27:32.249Z,5.55
2023-04-17T19:29:59.859Z,5.57
2023-04-17T19:32:27.223Z,6.07
2023-04-17T19:34:54.635Z,5.60
2023-04-17T19:37:21.915Z,6.40
2023-04-17T19:39:49.268Z,7.13
2023-04-17T19:42:16.569Z,8.52
2023-04-17T19:44:43.875Z,7.63
2023-04-17T19:47:11.415Z,7.20
2023-04-17T19:49:38.976Z,7.40
2023-04-17T19:52:06.328Z,7.63
2023-04-17T19:54:33.685Z,9.13
2023-04-17T19:57:02.220Z,8.65
2023-04-17T19:59:29.667Z,6.75
2023-04-17T20:01:56.979Z,9.77
2023-04-17T20:04:24.506Z,7.68
2023-04-17T20:06:51.957Z,9.10
2023-04-17T20:09:19.653Z,7.22
2023-04-17T20:11:47.177Z,7.05
2023-04-17T20:14:15.746Z,8.05
2023-04-17T20:16:45.363Z,10.20
2023-04-17T20:19:13.356Z,8.82
2023-04-17T20:21:40.972Z,8.50
2023-04-17T20:24:08.388Z,10.15
2023-04-17T20:26:37.375Z,10.05
2023-04-17T20:29:04.965Z,10.88
2023-04-17T20:31:36.280Z,10.70
2023-04-17T20:34:03.896Z,12.25
2023-04-17T20:36:31.420Z,11.13
2023-04-17T20:38:58.685Z,10.75
2023-04-17T20:41:26.014Z,10.60
2023-04-17T20:43:59.854Z,9.05
2023-04-17T20:46:27.781Z,9.95
2023-04-17T20:48:55.414Z,9.32
2023-04-17T20:51:27.511Z,14.80
2023-04-17T20:56:23.109Z,9.23
2023-04-17T20:58:50.670Z,10.48
2023-04-17T21:01:18.067Z,9.82
2023-04-17T21:03:45.846Z,9.70
2023-04-17T21:06:13.241Z,12.00
2023-04-17T21:08:40.639Z,11.40
2023-04-17T21:11:07.950Z,10.50
2023-04-17T21:13:35.402Z,8.73
2023-04-17T21:16:02.725Z,12.40
2023-04-17T21:18:30.152Z,10.27
2023-04-17T21:20:57.686Z,11.00
2023-04-17T21:23:25.232Z,10.15
2023-04-17T21:25:53.672Z,11.48
2023-04-17T21:28:21.145Z,12.23
2023-04-17T21:30:48.785Z,11.52
2023-04-17T21:33:16.422Z,10.02
2023-04-17T21:35:43.757Z,10.98
2023-04-17T21:38:11.033Z,11.93
2023-04-17T21:40:48.126Z,12.45
2023-04-17T21:43:18.263Z,11.60
2023-04-17T21:45:45.739Z,11.63
2023-04-17T21:48:14.833Z,11.82
2023-04-17T21:50:43.347Z,11.00
2023-04-17T21:53:10.737Z,11.98
2023-04-17T21:55:38.579Z,10.93
2023-04-17T21:58:05.956Z,8.73
2023-04-17T22:00:45.583Z,10.57
2023-04-17T22:03:13.042Z,10.18
2023-04-17T22:05:40.862Z,9.40
2023-04-17T22:08:08.189Z,10.55
2023-04-17T22:10:35.634Z,9.95
2023-04-17T22:13:03.448Z,11.18
2023-04-17T22:15:30.939Z,8.75
2023-04-17T22:17:58.937Z,7.05
2023-04-17T22:20:26.445Z,9.48
2023-04-17T22:22:53.779Z,10.23
2023-04-17T22:25:21.140Z,9.73
2023-04-17T22:27:48.409Z,8.57
2023-04-17T22:30:15.944Z,7.95
2023-04-17T22:32:43.284Z,7.43
2023-04-17T22:35:10.640Z,9.52
2023-04-17T22:37:37.931Z,7.07
2023-04-17T22:40:06.138Z,8.10
2023-04-17T22:42:33.403Z,9.80
2023-04-17T22:45:00.777Z,6.15
2023-04-17T22:47:28.061Z,10.00
2023-04-17T22:49:55.504Z,7.85
2023-04-17T22:52:22.771Z,8.43
2023-04-17T22:54:50.082Z,8.05
2023-04-17T22:57:17.384Z,7.43
2023-04-17T22:59:44.781Z,7.32
2023-04-17T23:02:12.174Z,7.57
2023-04-17T23:04:39.639Z,9.45
2023-04-17T23:07:06.928Z,8.75
2023-04-17T23:09:34.297Z,6.88
2023-04-17T23:12:02.260Z,8.07
2023-04-17T23:14:29.688Z,9.18
2023-04-17T23:16:57.000Z,9.32
2023-04-17T23:19:24.368Z,7.57
2023-04-17T23:21:51.714Z,10.70
2023-04-17T23:24:18.989Z,8.88
2023-04-17T23:26:48.521Z,10.90
2023-04-17T23:29:16.290Z,8.13
2023-04-17T23:31:45.437Z,9.30
2023-04-17T23:34:12.973Z,9.88
2023-04-17T23:36:40.488Z,7.80
2023-04-17T23:39:07.798Z,9.02
2023-04-17T23:41:35.378Z,9.93
2023-04-17T23:44:03.950Z,9.05
2023-04-17T23:46:31.290Z,8.63
2023-04-17T23:48:58.623Z,9.60
2023-04-17T23:51:26.282Z,10.57
2023-04-17T23:53:53.667Z,10.98
2023-04-17T23:56:22.667Z,11.20
2023-04-17T23:58:50.018Z,10.95
